sensor_id;sensor_type;location;lat;lon;timestamp;P1;durP1;ratioP1;P2;durP2;ratioP2
67747;SDS011;54543;50.712;6.070;2022-07-01T00:00:42;3.85;;;2.20;;
67747;SDS011;54543;50.712;6.070;2022-07-01T00:03:08;4.22;;;1.92;;
67747;SDS011;54543;50.712;6.070;2022-07-01T00:05:34;4.00;;;2.13;;
67747;SDS011;54543;50.712;6.070;2022-07-01T00:07:59;4.90;;;2.58;;
67747;SDS011;54543;50.712;6.070;2022-07-01T00:10:25;3.03;;;2.05;;
67747;SDS011;54543;50.712;6.070;2022-07-01T00:12:51;4.57;;;1.85;;
67747;SDS011;54543;50.712;6.070;2022-07-01T00:15:16;4.13;;;1.98;;
67747;SDS011;54543;50.712;6.070;2022-07-01T00:17:42;4.60;;;2.50;;
67747;SDS011;54543;50.712;6.070;2022-07-01T00:20:09;4.15;;;2.35;;
67747;SDS011;54543;50.712;6.070;2022-07-01T00:22:35;4.13;;;2.05;;
67747;SDS011;54543;50.712;6.070;2022-07-01T00:25:01;4.18;;;2.38;;
67747;SDS011;54543;50.712;6.070;2022-07-01T00:27:27;3.88;;;2.30;;
67747;SDS011;54543;50.712;6.070;2022-07-01T00:29:53;3.40;;;2.22;;
67747;SDS011;54543;50.712;6.070;2022-07-01T00:32:18;4.45;;;2.90;;
67747;SDS011;54543;50.712;6.070;2022-07-01T00:34:44;3.83;;;2.17;;
67747;SDS011;54543;50.712;6.070;2022-07-01T00:37:09;2.90;;;2.08;;
67747;SDS011;54543;50.712;6.070;2022-07-01T00:39:35;5.57;;;2.42;;
67747;SDS011;54543;50.712;6.070;2022-07-01T00:42:02;4.20;;;2.70;;
67747;SDS011;54543;50.712;6.070;2022-07-01T00:44:29;4.90;;;2.53;;
67747;SDS011;54543;50.712;6.070;2022-07-01T00:46:55;4.03;;;2.50;;
67747;SDS011;54543;50.712;6.070;2022-07-01T00:49:23;4.65;;;2.80;;
67747;SDS011;54543;50.712;6.070;2022-07-01T00:51:49;4.40;;;2.65;;
67747;SDS011;54543;50.712;6.070;2022-07-01T00:54:14;5.85;;;2.70;;
67747;SDS011;54543;50.712;6.070;2022-07-01T00:56:41;4.70;;;2.80;;
67747;SDS011;54543;50.712;6.070;2022-07-01T00:59:06;5.72;;;3.17;;
67747;SDS011;54543;50.712;6.070;2022-07-01T01:01:32;5.43;;;3.00;;
67747;SDS011;54543;50.712;6.070;2022-07-01T01:03:58;3.97;;;2.70;;
67747;SDS011;54543;50.712;6.070;2022-07-01T01:06:24;6.38;;;3.40;;
67747;SDS011;54543;50.712;6.070;2022-07-01T01:08:49;6.38;;;3.33;;
67747;SDS011;54543;50.712;6.070;2022-07-01T01:11:15;3.88;;;2.70;;
67747;SDS011;54543;50.712;6.070;2022-07-01T01:13:42;5.97;;;2.65;;
67747;SDS011;54543;50.712;6.070;2022-07-01T01:16:09;5.22;;;2.95;;
67747;SDS011;54543;50.712;6.070;2022-07-01T01:18:41;4.13;;;2.60;;
67747;SDS011;54543;50.712;6.070;2022-07-01T01:21:06;3.58;;;2.30;;
67747;SDS011;54543;50.712;6.070;2022-07-01T01:23:32;4.20;;;2.78;;
67747;SDS011;54543;50.712;6.070;2022-07-01T01:25:58;4.57;;;2.90;;
67747;SDS011;54543;50.712;6.070;2022-07-01T01:28:24;7.47;;;3.13;;
67747;SDS011;54543;50.712;6.070;2022-07-01T01:30:51;5.47;;;2.78;;
67747;SDS011;54543;50.712;6.070;2022-07-01T01:33:17;4.80;;;3.20;;
67747;SDS011;54543;50.712;6.070;2022-07-01T01:35:42;8.00;;;3.35;;
67747;SDS011;54543;50.712;6.070;2022-07-01T01:38:08;4.82;;;3.00;;
67747;SDS011;54543;50.712;6.070;2022-07-01T01:40:34;4.30;;;2.72;;
67747;SDS011;54543;50.712;6.070;2022-07-01T01:42:59;4.78;;;2.35;;
67747;SDS011;54543;50.712;6.070;2022-07-01T01:45:25;5.35;;;2.90;;
67747;SDS011;54543;50.712;6.070;2022-07-01T01:47:50;6.28;;;4.10;;
67747;SDS011;54543;50.712;6.070;2022-07-01T01:50:16;5.72;;;3.22;;
67747;SDS011;54543;50.712;6.070;2022-07-01T01:52:42;4.53;;;2.78;;
67747;SDS011;54543;50.712;6.070;2022-07-01T01:55:08;5.50;;;3.17;;
67747;SDS011;54543;50.712;6.070;2022-07-01T01:57:34;6.60;;;3.70;;
67747;SDS011;54543;50.712;6.070;2022-07-01T02:00:00;5.18;;;2.95;;
67747;SDS011;54543;50.712;6.070;2022-07-01T02:02:26;5.35;;;3.20;;
67747;SDS011;54543;50.712;6.070;2022-07-01T02:04:51;4.40;;;2.88;;
67747;SDS011;54543;50.712;6.070;2022-07-01T02:07:17;6.45;;;2.97;;
67747;SDS011;54543;50.712;6.070;2022-07-01T02:09:43;4.93;;;2.92;;
67747;SDS011;54543;50.712;6.070;2022-07-01T02:12:08;6.00;;;3.17;;
67747;SDS011;54543;50.712;6.070;2022-07-01T02:14:34;4.47;;;2.78;;
67747;SDS011;54543;50.712;6.070;2022-07-01T02:16:59;4.47;;;2.90;;
67747;SDS011;54543;50.712;6.070;2022-07-01T02:19:25;5.35;;;2.80;;
67747;SDS011;54543;50.712;6.070;2022-07-01T02:21:51;5.13;;;2.55;;
67747;SDS011;54543;50.712;6.070;2022-07-01T02:24:17;4.30;;;2.33;;
67747;SDS011;54543;50.712;6.070;2022-07-01T02:26:43;5.22;;;2.80;;
67747;SDS011;54543;50.712;6.070;2022-07-01T02:29:09;4.43;;;2.45;;
67747;SDS011;54543;50.712;6.070;2022-07-01T02:31:35;5.03;;;2.75;;
67747;SDS011;54543;50.712;6.070;2022-07-01T02:34:00;5.22;;;2.90;;
67747;SDS011;54543;50.712;6.070;2022-07-01T02:36:26;4.93;;;2.60;;
67747;SDS011;54543;50.712;6.070;2022-07-01T02:38:51;4.63;;;2.60;;
67747;SDS011;54543;50.712;6.070;2022-07-01T02:41:17;4.93;;;2.70;;
67747;SDS011;54543;50.712;6.070;2022-07-01T02:43:43;5.40;;;2.80;;
67747;SDS011;54543;50.712;6.070;2022-07-01T02:46:08;4.25;;;2.30;;
67747;SDS011;54543;50.712;6.070;2022-07-01T02:48:34;7.88;;;2.92;;
67747;SDS011;54543;50.712;6.070;2022-07-01T02:50:59;4.25;;;2.60;;
67747;SDS011;54543;50.712;6.070;2022-07-01T02:53:25;5.90;;;2.35;;
67747;SDS011;54543;50.712;6.070;2022-07-01T02:55:51;4.95;;;2.85;;
67747;SDS011;54543;50.712;6.070;2022-07-01T02:58:16;5.32;;;3.03;;
67747;SDS011;54543;50.712;6.070;2022-07-01T03:00:42;4.75;;;2.80;;
67747;SDS011;54543;50.712;6.070;2022-07-01T03:03:08;6.32;;;2.58;;
67747;SDS011;54543;50.712;6.070;2022-07-01T03:05:34;5.07;;;2.90;;
67747;SDS011;54543;50.712;6.070;2022-07-01T03:07:59;6.63;;;3.10;;
67747;SDS011;54543;50.712;6.070;2022-07-01T03:10:25;4.82;;;2.83;;
67747;SDS011;54543;50.712;6.070;2022-07-01T03:12:51;7.53;;;4.97;;
67747;SDS011;54543;50.712;6.070;2022-07-01T03:15:17;6.00;;;3.28;;
67747;SDS011;54543;50.712;6.070;2022-07-01T03:17:43;6.10;;;2.75;;
67747;SDS011;54543;50.712;6.070;2022-07-01T03:20:11;6.57;;;2.70;;
67747;SDS011;54543;50.712;6.070;2022-07-01T03:22:39;6.30;;;3.25;;
67747;SDS011;54543;50.712;6.070;2022-07-01T03:25:06;5.32;;;2.92;;
67747;SDS011;54543;50.712;6.070;2022-07-01T03:27:32;6.88;;;3.38;;
67747;SDS011;54543;50.712;6.070;2022-07-01T03:29:58;4.13;;;2.78;;
67747;SDS011;54543;50.712;6.070;2022-07-01T03:32:24;5.93;;;3.70;;
67747;SDS011;54543;50.712;6.070;2022-07-01T03:34:50;7.65;;;4.10;;
67747;SDS011;54543;50.712;6.070;2022-07-01T03:37:18;5.78;;;3.15;;
67747;SDS011;54543;50.712;6.070;2022-07-01T03:39:44;5.65;;;3.15;;
67747;SDS011;54543;50.712;6.070;2022-07-01T03:42:10;5.28;;;3.17;;
67747;SDS011;54543;50.712;6.070;2022-07-01T03:44:36;5.38;;;2.78;;
67747;SDS011;54543;50.712;6.070;2022-07-01T03:47:03;5.75;;;2.97;;
67747;SDS011;54543;50.712;6.070;2022-07-01T03:49:30;4.20;;;3.10;;
67747;SDS011;54543;50.712;6.070;2022-07-01T03:51:56;4.82;;;2.70;;
67747;SDS011;54543;50.712;6.070;2022-07-01T03:54:21;5.85;;;3.38;;
67747;SDS011;54543;50.712;6.070;2022-07-01T03:57:01;5.53;;;3.00;;
67747;SDS011;54543;50.712;6.070;2022-07-01T03:59:28;5.38;;;2.63;;
67747;SDS011;54543;50.712;6.070;2022-07-01T04:01:55;9.20;;;4.03;;
67747;SDS011;54543;50.712;6.070;2022-07-01T04:04:22;7.45;;;4.03;;
67747;SDS011;54543;50.712;6.070;2022-07-01T04:06:48;5.32;;;3.13;;
67747;SDS011;54543;50.712;6.070;2022-07-01T04:09:14;4.82;;;2.88;;
67747;SDS011;54543;50.712;6.070;2022-07-01T04:11:41;5.38;;;2.65;;
67747;SDS011;54543;50.712;6.070;2022-07-01T04:14:08;5.57;;;3.40;;
67747;SDS011;54543;50.712;6.070;2022-07-01T04:16:34;5.53;;;3.50;;
67747;SDS011;54543;50.712;6.070;2022-07-01T04:19:00;6.10;;;3.55;;
67747;SDS011;54543;50.712;6.070;2022-07-01T04:21:25;5.32;;;2.80;;
67747;SDS011;54543;50.712;6.070;2022-07-01T04:24:09;4.70;;;2.90;;
67747;SDS011;54543;50.712;6.070;2022-07-01T04:26:35;7.20;;;2.78;;
67747;SDS011;54543;50.712;6.070;2022-07-01T04:29:01;6.72;;;3.65;;
67747;SDS011;54543;50.712;6.070;2022-07-01T04:31:27;5.78;;;3.33;;
67747;SDS011;54543;50.712;6.070;2022-07-01T04:33:53;4.25;;;3.17;;
67747;SDS011;54543;50.712;6.070;2022-07-01T04:36:19;5.22;;;3.28;;
67747;SDS011;54543;50.712;6.070;2022-07-01T04:38:45;6.50;;;3.42;;
67747;SDS011;54543;50.712;6.070;2022-07-01T04:41:11;6.15;;;3.47;;
67747;SDS011;54543;50.712;6.070;2022-07-01T04:43:55;6.47;;;4.07;;
67747;SDS011;54543;50.712;6.070;2022-07-01T04:46:21;6.90;;;3.30;;
67747;SDS011;54543;50.712;6.070;2022-07-01T04:48:46;9.00;;;5.75;;
67747;SDS011;54543;50.712;6.070;2022-07-01T04:51:12;7.80;;;4.47;;
67747;SDS011;54543;50.712;6.070;2022-07-01T04:53:37;9.50;;;6.35;;
67747;SDS011;54543;50.712;6.070;2022-07-01T04:56:03;8.60;;;4.63;;
67747;SDS011;54543;50.712;6.070;2022-07-01T04:58:29;6.10;;;3.78;;
67747;SDS011;54543;50.712;6.070;2022-07-01T05:00:54;4.85;;;3.13;;
67747;SDS011;54543;50.712;6.070;2022-07-01T05:03:20;6.18;;;3.50;;
67747;SDS011;54543;50.712;6.070;2022-07-01T05:05:45;5.20;;;3.17;;
67747;SDS011;54543;50.712;6.070;2022-07-01T05:08:11;7.45;;;4.47;;
67747;SDS011;54543;50.712;6.070;2022-07-01T05:10:37;6.25;;;3.40;;
67747;SDS011;54543;50.712;6.070;2022-07-01T05:13:02;5.45;;;3.00;;
67747;SDS011;54543;50.712;6.070;2022-07-01T05:15:28;6.05;;;3.50;;
67747;SDS011;54543;50.712;6.070;2022-07-01T05:17:54;7.57;;;3.40;;
67747;SDS011;54543;50.712;6.070;2022-07-01T05:20:38;5.25;;;3.70;;
67747;SDS011;54543;50.712;6.070;2022-07-01T05:23:22;4.25;;;2.85;;
67747;SDS011;54543;50.712;6.070;2022-07-01T05:25:48;4.80;;;2.55;;
67747;SDS011;54543;50.712;6.070;2022-07-01T05:28:13;6.00;;;3.60;;
67747;SDS011;54543;50.712;6.070;2022-07-01T05:30:39;5.40;;;2.67;;
67747;SDS011;54543;50.712;6.070;2022-07-01T05:33:05;5.93;;;3.35;;
67747;SDS011;54543;50.712;6.070;2022-07-01T05:35:31;7.30;;;3.50;;
67747;SDS011;54543;50.712;6.070;2022-07-01T05:37:56;6.82;;;3.38;;
67747;SDS011;54543;50.712;6.070;2022-07-01T05:40:22;7.15;;;2.83;;
67747;SDS011;54543;50.712;6.070;2022-07-01T05:42:48;5.95;;;3.10;;
67747;SDS011;54543;50.712;6.070;2022-07-01T05:45:13;7.20;;;3.30;;
67747;SDS011;54543;50.712;6.070;2022-07-01T05:47:39;5.78;;;3.03;;
67747;SDS011;54543;50.712;6.070;2022-07-01T05:50:05;10.38;;;6.38;;
67747;SDS011;54543;50.712;6.070;2022-07-01T05:52:32;11.77;;;6.85;;
67747;SDS011;54543;50.712;6.070;2022-07-01T05:54:57;7.82;;;4.40;;
67747;SDS011;54543;50.712;6.070;2022-07-01T05:57:23;9.80;;;4.38;;
67747;SDS011;54543;50.712;6.070;2022-07-01T05:59:48;6.22;;;4.07;;
67747;SDS011;54543;50.712;6.070;2022-07-01T06:02:14;7.53;;;4.07;;
67747;SDS011;54543;50.712;6.070;2022-07-01T06:04:39;5.15;;;3.30;;
67747;SDS011;54543;50.712;6.070;2022-07-01T06:07:08;6.32;;;3.55;;
67747;SDS011;54543;50.712;6.070;2022-07-01T06:09:35;6.32;;;3.40;;
67747;SDS011;54543;50.712;6.070;2022-07-01T06:12:02;5.97;;;3.88;;
67747;SDS011;54543;50.712;6.070;2022-07-01T06:14:28;6.55;;;3.40;;
67747;SDS011;54543;50.712;6.070;2022-07-01T06:16:54;7.03;;;4.18;;
67747;SDS011;54543;50.712;6.070;2022-07-01T06:19:19;7.78;;;3.63;;
67747;SDS011;54543;50.712;6.070;2022-07-01T06:21:45;7.53;;;4.20;;
67747;SDS011;54543;50.712;6.070;2022-07-01T06:24:11;10.07;;;5.80;;
67747;SDS011;54543;50.712;6.070;2022-07-01T06:26:36;9.00;;;4.07;;
67747;SDS011;54543;50.712;6.070;2022-07-01T06:29:02;7.72;;;4.68;;
67747;SDS011;54543;50.712;6.070;2022-07-01T06:31:28;6.20;;;3.58;;
67747;SDS011;54543;50.712;6.070;2022-07-01T06:33:54;7.35;;;4.20;;
67747;SDS011;54543;50.712;6.070;2022-07-01T06:36:20;4.88;;;3.67;;
67747;SDS011;54543;50.712;6.070;2022-07-01T06:38:45;6.45;;;4.07;;
67747;SDS011;54543;50.712;6.070;2022-07-01T06:41:11;7.85;;;4.03;;
67747;SDS011;54543;50.712;6.070;2022-07-01T06:43:55;6.10;;;3.40;;
67747;SDS011;54543;50.712;6.070;2022-07-01T06:46:21;8.52;;;4.30;;
67747;SDS011;54543;50.712;6.070;2022-07-01T06:48:48;6.60;;;4.68;;
67747;SDS011;54543;50.712;6.070;2022-07-01T06:51:14;5.20;;;3.17;;
67747;SDS011;54543;50.712;6.070;2022-07-01T06:53:39;5.72;;;3.95;;
67747;SDS011;54543;50.712;6.070;2022-07-01T06:56:05;7.68;;;3.42;;
67747;SDS011;54543;50.712;6.070;2022-07-01T06:58:31;4.00;;;2.67;;
67747;SDS011;54543;50.712;6.070;2022-07-01T07:00:56;5.55;;;3.58;;
67747;SDS011;54543;50.712;6.070;2022-07-01T07:03:22;9.57;;;3.85;;
67747;SDS011;54543;50.712;6.070;2022-07-01T07:05:48;7.03;;;4.50;;
67747;SDS011;54543;50.712;6.070;2022-07-01T07:08:14;6.55;;;4.07;;
67747;SDS011;54543;50.712;6.070;2022-07-01T07:10:39;7.97;;;3.72;;
67747;SDS011;54543;50.712;6.070;2022-07-01T07:13:05;5.47;;;3.08;;
67747;SDS011;54543;50.712;6.070;2022-07-01T07:15:30;6.40;;;4.20;;
67747;SDS011;54543;50.712;6.070;2022-07-01T07:17:56;5.18;;;4.13;;
67747;SDS011;54543;50.712;6.070;2022-07-01T07:20:25;6.50;;;3.75;;
67747;SDS011;54543;50.712;6.070;2022-07-01T07:22:52;6.95;;;4.40;;
67747;SDS011;54543;50.712;6.070;2022-07-01T07:25:18;7.50;;;5.95;;
67747;SDS011;54543;50.712;6.070;2022-07-01T07:27:44;8.52;;;4.60;;
67747;SDS011;54543;50.712;6.070;2022-07-01T07:30:12;10.73;;;7.60;;
67747;SDS011;54543;50.712;6.070;2022-07-01T07:32:38;7.15;;;4.72;;
67747;SDS011;54543;50.712;6.070;2022-07-01T07:35:05;5.72;;;4.65;;
67747;SDS011;54543;50.712;6.070;2022-07-01T07:37:32;8.25;;;5.50;;
67747;SDS011;54543;50.712;6.070;2022-07-01T07:39:58;6.50;;;4.28;;
67747;SDS011;54543;50.712;6.070;2022-07-01T07:42:24;8.50;;;4.57;;
67747;SDS011;54543;50.712;6.070;2022-07-01T07:44:50;6.60;;;4.97;;
67747;SDS011;54543;50.712;6.070;2022-07-01T07:47:16;6.68;;;4.07;;
67747;SDS011;54543;50.712;6.070;2022-07-01T07:49:41;11.52;;;4.97;;
67747;SDS011;54543;50.712;6.070;2022-07-01T07:52:07;5.47;;;3.80;;
67747;SDS011;54543;50.712;6.070;2022-07-01T07:54:32;4.95;;;3.00;;
67747;SDS011;54543;50.712;6.070;2022-07-01T07:56:58;6.35;;;3.63;;
67747;SDS011;54543;50.712;6.070;2022-07-01T07:59:23;4.72;;;3.00;;
67747;SDS011;54543;50.712;6.070;2022-07-01T08:01:49;5.55;;;2.83;;
67747;SDS011;54543;50.712;6.070;2022-07-01T08:04:14;5.18;;;2.50;;
67747;SDS011;54543;50.712;6.070;2022-07-01T08:06:40;4.05;;;2.70;;
67747;SDS011;54543;50.712;6.070;2022-07-01T08:09:05;4.43;;;2.58;;
67747;SDS011;54543;50.712;6.070;2022-07-01T08:11:31;5.05;;;2.20;;
67747;SDS011;54543;50.712;6.070;2022-07-01T08:13:57;6.25;;;2.17;;
67747;SDS011;54543;50.712;6.070;2022-07-01T08:16:23;4.43;;;2.00;;
67747;SDS011;54543;50.712;6.070;2022-07-01T08:18:48;8.40;;;2.40;;
67747;SDS011;54543;50.712;6.070;2022-07-01T08:21:14;3.38;;;2.15;;
67747;SDS011;54543;50.712;6.070;2022-07-01T08:23:40;9.43;;;3.78;;
67747;SDS011;54543;50.712;6.070;2022-07-01T08:26:05;7.00;;;2.88;;
67747;SDS011;54543;50.712;6.070;2022-07-01T08:28:31;3.90;;;2.60;;
67747;SDS011;54543;50.712;6.070;2022-07-01T08:30:57;4.82;;;2.30;;
67747;SDS011;54543;50.712;6.070;2022-07-01T08:33:22;10.07;;;4.00;;
67747;SDS011;54543;50.712;6.070;2022-07-01T08:35:48;4.13;;;2.28;;
67747;SDS011;54543;50.712;6.070;2022-07-01T08:38:13;4.55;;;1.88;;
67747;SDS011;54543;50.712;6.070;2022-07-01T08:40:39;3.80;;;1.90;;
67747;SDS011;54543;50.712;6.070;2022-07-01T08:43:06;3.00;;;1.70;;
67747;SDS011;54543;50.712;6.070;2022-07-01T08:45:33;2.88;;;1.60;;
67747;SDS011;54543;50.712;6.070;2022-07-01T08:48:01;2.60;;;1.58;;
67747;SDS011;54543;50.712;6.070;2022-07-01T08:50:28;3.78;;;2.13;;
67747;SDS011;54543;50.712;6.070;2022-07-01T08:53:13;5.22;;;2.33;;
67747;SDS011;54543;50.712;6.070;2022-07-01T08:55:39;5.25;;;2.30;;
67747;SDS011;54543;50.712;6.070;2022-07-01T08:58:24;6.43;;;2.55;;
67747;SDS011;54543;50.712;6.070;2022-07-01T09:00:51;2.50;;;2.10;;
67747;SDS011;54543;50.712;6.070;2022-07-01T09:03:20;3.22;;;2.60;;
67747;SDS011;54543;50.712;6.070;2022-07-01T09:05:50;4.93;;;3.35;;
67747;SDS011;54543;50.712;6.070;2022-07-01T09:08:17;4.60;;;2.80;;
67747;SDS011;54543;50.712;6.070;2022-07-01T09:10:43;3.55;;;2.60;;
67747;SDS011;54543;50.712;6.070;2022-07-01T09:13:10;3.70;;;2.40;;
67747;SDS011;54543;50.712;6.070;2022-07-01T09:15:37;4.53;;;2.50;;
67747;SDS011;54543;50.712;6.070;2022-07-01T09:18:14;5.82;;;2.90;;
67747;SDS011;54543;50.712;6.070;2022-07-01T09:20:42;3.78;;;2.35;;
67747;SDS011;54543;50.712;6.070;2022-07-01T09:23:16;4.25;;;2.83;;
67747;SDS011;54543;50.712;6.070;2022-07-01T09:25:44;3.08;;;1.85;;
67747;SDS011;54543;50.712;6.070;2022-07-01T09:28:13;3.03;;;1.90;;
67747;SDS011;54543;50.712;6.070;2022-07-01T09:30:47;2.97;;;1.73;;
67747;SDS011;54543;50.712;6.070;2022-07-01T09:33:15;7.03;;;1.80;;
67747;SDS011;54543;50.712;6.070;2022-07-01T09:35:45;2.88;;;1.80;;
67747;SDS011;54543;50.712;6.070;2022-07-01T09:38:13;3.08;;;1.80;;
67747;SDS011;54543;50.712;6.070;2022-07-01T09:40:46;5.63;;;2.20;;
67747;SDS011;54543;50.712;6.070;2022-07-01T09:43:20;3.60;;;2.33;;
67747;SDS011;54543;50.712;6.070;2022-07-01T09:48:14;3.95;;;2.10;;
67747;SDS011;54543;50.712;6.070;2022-07-01T09:50:40;4.32;;;2.65;;
67747;SDS011;54543;50.712;6.070;2022-07-01T09:53:05;4.95;;;2.88;;
67747;SDS011;54543;50.712;6.070;2022-07-01T09:55:31;3.33;;;2.20;;
67747;SDS011;54543;50.712;6.070;2022-07-01T09:58:00;5.40;;;2.83;;
67747;SDS011;54543;50.712;6.070;2022-07-01T10:00:26;2.88;;;1.80;;
67747;SDS011;54543;50.712;6.070;2022-07-01T10:02:54;1.77;;;1.60;;
67747;SDS011;54543;50.712;6.070;2022-07-01T10:05:22;2.17;;;1.77;;
67747;SDS011;54543;50.712;6.070;2022-07-01T10:10:37;4.20;;;2.30;;
67747;SDS011;54543;50.712;6.070;2022-07-01T10:13:07;3.38;;;2.20;;
67747;SDS011;54543;50.712;6.070;2022-07-01T10:15:37;5.25;;;2.15;;
67747;SDS011;54543;50.712;6.070;2022-07-01T10:18:06;3.63;;;2.20;;
67747;SDS011;54543;50.712;6.070;2022-07-01T10:20:48;1.58;;;1.40;;
67747;SDS011;54543;50.712;6.070;2022-07-01T10:23:13;9.88;;;4.82;;
67747;SDS011;54543;50.712;6.070;2022-07-01T10:25:43;7.70;;;3.20;;
67747;SDS011;54543;50.712;6.070;2022-07-01T10:36:27;7.60;;;3.97;;
67747;SDS011;54543;50.712;6.070;2022-07-01T10:41:32;6.03;;;2.63;;
67747;SDS011;54543;50.712;6.070;2022-07-01T10:43:58;4.40;;;2.25;;
67747;SDS011;54543;50.712;6.070;2022-07-01T10:49:10;2.38;;;1.25;;
67747;SDS011;54543;50.712;6.070;2022-07-01T10:55:01;2.17;;;1.40;;
67747;SDS011;54543;50.712;6.070;2022-07-01T10:59:43;2.40;;;1.30;;
67747;SDS011;54543;50.712;6.070;2022-07-01T11:02:35;3.50;;;1.50;;
67747;SDS011;54543;50.712;6.070;2022-07-01T11:05:02;6.17;;;1.87;;
67747;SDS011;54543;50.712;6.070;2022-07-01T11:07:30;6.97;;;4.10;;
67747;SDS011;54543;50.712;6.070;2022-07-01T11:09:57;6.10;;;2.88;;
67747;SDS011;54543;50.712;6.070;2022-07-01T11:12:24;5.65;;;2.33;;
67747;SDS011;54543;50.712;6.070;2022-07-01T11:14:50;2.95;;;1.77;;
67747;SDS011;54543;50.712;6.070;2022-07-01T11:17:17;5.32;;;1.60;;
67747;SDS011;54543;50.712;6.070;2022-07-01T11:19:50;2.20;;;1.40;;
67747;SDS011;54543;50.712;6.070;2022-07-01T11:22:18;1.60;;;1.10;;
67747;SDS011;54543;50.712;6.070;2022-07-01T11:24:44;1.33;;;0.93;;
67747;SDS011;54543;50.712;6.070;2022-07-01T11:27:10;0.88;;;0.70;;
67747;SDS011;54543;50.712;6.070;2022-07-01T11:29:35;1.80;;;1.00;;
67747;SDS011;54543;50.712;6.070;2022-07-01T11:32:01;1.30;;;1.08;;
67747;SDS011;54543;50.712;6.070;2022-07-01T11:34:28;3.65;;;0.77;;
67747;SDS011;54543;50.712;6.070;2022-07-01T11:36:54;2.63;;;1.10;;
67747;SDS011;54543;50.712;6.070;2022-07-01T11:39:39;2.15;;;1.05;;
67747;SDS011;54543;50.712;6.070;2022-07-01T11:42:09;1.27;;;0.85;;
67747;SDS011;54543;50.712;6.070;2022-07-01T11:44:37;1.80;;;1.38;;
67747;SDS011;54543;50.712;6.070;2022-07-01T11:47:08;1.40;;;1.30;;
67747;SDS011;54543;50.712;6.070;2022-07-01T11:49:46;1.45;;;1.02;;
67747;SDS011;54543;50.712;6.070;2022-07-01T11:52:12;3.67;;;1.70;;
67747;SDS011;54543;50.712;6.070;2022-07-01T11:54:39;1.73;;;1.00;;
67747;SDS011;54543;50.712;6.070;2022-07-01T11:57:09;3.00;;;1.08;;
67747;SDS011;54543;50.712;6.070;2022-07-01T11:59:42;2.92;;;1.60;;
67747;SDS011;54543;50.712;6.070;2022-07-01T12:02:10;3.17;;;2.00;;
67747;SDS011;54543;50.712;6.070;2022-07-01T12:04:37;2.90;;;1.42;;
67747;SDS011;54543;50.712;6.070;2022-07-01T12:07:04;4.60;;;2.30;;
67747;SDS011;54543;50.712;6.070;2022-07-01T12:09:30;2.83;;;1.88;;
67747;SDS011;54543;50.712;6.070;2022-07-01T12:11:57;3.97;;;2.25;;
67747;SDS011;54543;50.712;6.070;2022-07-01T12:14:26;3.17;;;1.80;;
67747;SDS011;54543;50.712;6.070;2022-07-01T12:16:58;1.88;;;1.10;;
67747;SDS011;54543;50.712;6.070;2022-07-01T12:22:10;3.63;;;2.08;;
67747;SDS011;54543;50.712;6.070;2022-07-01T12:24:37;4.57;;;1.83;;
67747;SDS011;54543;50.712;6.070;2022-07-01T12:27:04;4.70;;;2.67;;
67747;SDS011;54543;50.712;6.070;2022-07-01T12:32:11;3.65;;;1.63;;
67747;SDS011;54543;50.712;6.070;2022-07-01T12:37:14;1.58;;;0.95;;
67747;SDS011;54543;50.712;6.070;2022-07-01T12:40:00;1.92;;;1.13;;
67747;SDS011;54543;50.712;6.070;2022-07-01T12:42:28;1.90;;;1.00;;
67747;SDS011;54543;50.712;6.070;2022-07-01T12:45:05;2.83;;;2.00;;
67747;SDS011;54543;50.712;6.070;2022-07-01T12:55:24;5.32;;;2.97;;
67747;SDS011;54543;50.712;6.070;2022-07-01T12:57:50;5.50;;;3.50;;
67747;SDS011;54543;50.712;6.070;2022-07-01T13:00:18;4.13;;;1.70;;
67747;SDS011;54543;50.712;6.070;2022-07-01T13:02:45;2.58;;;1.70;;
67747;SDS011;54543;50.712;6.070;2022-07-01T13:05:11;2.85;;;1.35;;
67747;SDS011;54543;50.712;6.070;2022-07-01T13:07:38;3.80;;;1.52;;
67747;SDS011;54543;50.712;6.070;2022-07-01T13:10:04;3.20;;;1.40;;
67747;SDS011;54543;50.712;6.070;2022-07-01T13:12:30;3.35;;;1.90;;
67747;SDS011;54543;50.712;6.070;2022-07-01T13:14:56;3.72;;;2.78;;
67747;SDS011;54543;50.712;6.070;2022-07-01T13:17:24;3.05;;;1.70;;
67747;SDS011;54543;50.712;6.070;2022-07-01T13:19:50;2.28;;;1.50;;
67747;SDS011;54543;50.712;6.070;2022-07-01T13:22:16;5.68;;;1.55;;
67747;SDS011;54543;50.712;6.070;2022-07-01T13:24:42;2.17;;;1.10;;
67747;SDS011;54543;50.712;6.070;2022-07-01T13:27:07;0.80;;;0.73;;
67747;SDS011;54543;50.712;6.070;2022-07-01T13:29:33;1.30;;;0.98;;
67747;SDS011;54543;50.712;6.070;2022-07-01T13:31:59;0.75;;;0.75;;
67747;SDS011;54543;50.712;6.070;2022-07-01T13:34:24;4.75;;;2.97;;
67747;SDS011;54543;50.712;6.070;2022-07-01T13:36:50;2.30;;;1.65;;
67747;SDS011;54543;50.712;6.070;2022-07-01T13:39:16;3.38;;;2.05;;
67747;SDS011;54543;50.712;6.070;2022-07-01T13:41:41;3.72;;;1.10;;
67747;SDS011;54543;50.712;6.070;2022-07-01T13:44:07;2.28;;;0.93;;
67747;SDS011;54543;50.712;6.070;2022-07-01T13:46:33;1.20;;;0.98;;
67747;SDS011;54543;50.712;6.070;2022-07-01T13:49:00;3.75;;;2.58;;
67747;SDS011;54543;50.712;6.070;2022-07-01T13:51:25;2.75;;;1.58;;
67747;SDS011;54543;50.712;6.070;2022-07-01T13:53:51;3.22;;;1.10;;
67747;SDS011;54543;50.712;6.070;2022-07-01T13:56:17;1.27;;;0.90;;
67747;SDS011;54543;50.712;6.070;2022-07-01T13:58:42;2.50;;;1.00;;
67747;SDS011;54543;50.712;6.070;2022-07-01T14:01:08;0.80;;;0.57;;
67747;SDS011;54543;50.712;6.070;2022-07-01T14:03:34;1.65;;;0.75;;
67747;SDS011;54543;50.712;6.070;2022-07-01T14:05:59;0.77;;;0.60;;
67747;SDS011;54543;50.712;6.070;2022-07-01T14:08:25;1.67;;;0.85;;
67747;SDS011;54543;50.712;6.070;2022-07-01T14:10:54;1.58;;;1.23;;
67747;SDS011;54543;50.712;6.070;2022-07-01T14:13:20;1.25;;;0.93;;
67747;SDS011;54543;50.712;6.070;2022-07-01T14:15:47;1.52;;;0.98;;
67747;SDS011;54543;50.712;6.070;2022-07-01T14:18:13;2.08;;;1.20;;
67747;SDS011;54543;50.712;6.070;2022-07-01T14:20:39;0.85;;;0.82;;
67747;SDS011;54543;50.712;6.070;2022-07-01T14:23:06;1.48;;;0.90;;
67747;SDS011;54543;50.712;6.070;2022-07-01T14:25:31;2.53;;;1.40;;
67747;SDS011;54543;50.712;6.070;2022-07-01T14:27:57;0.90;;;0.80;;
67747;SDS011;54543;50.712;6.070;2022-07-01T14:30:23;1.48;;;1.10;;
67747;SDS011;54543;50.712;6.070;2022-07-01T14:32:48;2.95;;;1.50;;
67747;SDS011;54543;50.712;6.070;2022-07-01T14:35:14;2.47;;;1.13;;
67747;SDS011;54543;50.712;6.070;2022-07-01T14:37:39;1.33;;;0.77;;
67747;SDS011;54543;50.712;6.070;2022-07-01T14:40:07;1.38;;;0.90;;
67747;SDS011;54543;50.712;6.070;2022-07-01T14:42:34;1.05;;;0.75;;
67747;SDS011;54543;50.712;6.070;2022-07-01T14:45:00;2.63;;;0.80;;
67747;SDS011;54543;50.712;6.070;2022-07-01T14:47:25;1.50;;;0.70;;
67747;SDS011;54543;50.712;6.070;2022-07-01T14:49:51;1.08;;;0.70;;
67747;SDS011;54543;50.712;6.070;2022-07-01T14:52:18;2.45;;;0.60;;
67747;SDS011;54543;50.712;6.070;2022-07-01T14:54:47;1.33;;;0.60;;
67747;SDS011;54543;50.712;6.070;2022-07-01T14:57:15;1.17;;;1.00;;
67747;SDS011;54543;50.712;6.070;2022-07-01T14:59:41;0.75;;;0.60;;
67747;SDS011;54543;50.712;6.070;2022-07-01T15:02:06;1.10;;;0.63;;
67747;SDS011;54543;50.712;6.070;2022-07-01T15:04:32;2.65;;;0.82;;
67747;SDS011;54543;50.712;6.070;2022-07-01T15:06:58;0.77;;;0.60;;
67747;SDS011;54543;50.712;6.070;2022-07-01T15:09:24;1.23;;;0.55;;
67747;SDS011;54543;50.712;6.070;2022-07-01T15:11:50;0.93;;;0.60;;
67747;SDS011;54543;50.712;6.070;2022-07-01T15:14:17;0.98;;;0.85;;
67747;SDS011;54543;50.712;6.070;2022-07-01T15:16:43;2.97;;;0.80;;
67747;SDS011;54543;50.712;6.070;2022-07-01T15:19:09;0.82;;;0.82;;
67747;SDS011;54543;50.712;6.070;2022-07-01T15:21:35;0.70;;;0.70;;
67747;SDS011;54543;50.712;6.070;2022-07-01T15:24:01;0.90;;;0.70;;
67747;SDS011;54543;50.712;6.070;2022-07-01T15:26:27;1.05;;;0.70;;